Terminal Aerodrome Forecast
Issued by NWS Rapid City, SD

Home | Current Version | Previous Version | Graphics & Text | Print | Product List | Glossary On
Versions: 1 2 3 4 5 6 7 8 9 10 11 12 13 14 15 16 17
666
FTUS43 KUNR 172205 AAB
TAFRAP
TAF AMD
KRAP 172205Z 1722/1818 36012KT 5SM -RASN OVC015
     FM180300 30005KT P6SM SCT025 OVC040
     FM180600 33019KT P6SM SCT030=

USA.gov is the U.S. government's official web portal to all federal, state and local government web resources and services.